sensor_id;sensor_type;location;lat;lon;timestamp;temperature;humidity
7942;HTU21D;4016;50.758;7.150;2022-12-07T00:00:12;4.93;118.99
7942;HTU21D;4016;50.758;7.150;2022-12-07T00:05:12;4.84;118.99
7942;HTU21D;4016;50.758;7.150;2022-12-07T00:10:13;4.89;118.99
7942;HTU21D;4016;50.758;7.150;2022-12-07T00:15:13;4.83;118.99
7942;HTU21D;4016;50.758;7.150;2022-12-07T00:20:14;4.87;118.99
7942;HTU21D;4016;50.758;7.150;2022-12-07T00:25:14;4.91;118.99
7942;HTU21D;4016;50.758;7.150;2022-12-07T00:30:14;4.91;118.99
7942;HTU21D;4016;50.758;7.150;2022-12-07T00:35:15;5.11;118.99
7942;HTU21D;4016;50.758;7.150;2022-12-07T00:52:09;5.13;118.99
7942;HTU21D;4016;50.758;7.150;2022-12-07T00:57:09;5.12;118.99
7942;HTU21D;4016;50.758;7.150;2022-12-07T01:02:10;5.16;118.99
7942;HTU21D;4016;50.758;7.150;2022-12-07T01:07:10;5.23;118.99
7942;HTU21D;4016;50.758;7.150;2022-12-07T01:12:10;5.25;118.99
7942;HTU21D;4016;50.758;7.150;2022-12-07T01:17:11;5.31;118.99
7942;HTU21D;4016;50.758;7.150;2022-12-07T01:22:11;5.40;118.99
7942;HTU21D;4016;50.758;7.150;2022-12-07T01:27:12;5.31;118.99
7942;HTU21D;4016;50.758;7.150;2022-12-07T01:32:12;5.37;118.99
7942;HTU21D;4016;50.758;7.150;2022-12-07T01:37:13;5.36;118.99
7942;HTU21D;4016;50.758;7.150;2022-12-07T01:42:13;5.36;118.99
7942;HTU21D;4016;50.758;7.150;2022-12-07T01:47:13;5.35;118.99
7942;HTU21D;4016;50.758;7.150;2022-12-07T01:52:20;5.37;118.99
7942;HTU21D;4016;50.758;7.150;2022-12-07T01:57:23;5.36;118.99
7942;HTU21D;4016;50.758;7.150;2022-12-07T02:02:33;5.28;118.99
7942;HTU21D;4016;50.758;7.150;2022-12-07T02:07:36;5.27;118.99
7942;HTU21D;4016;50.758;7.150;2022-12-07T02:12:37;5.38;118.99
7942;HTU21D;4016;50.758;7.150;2022-12-07T02:18:09;5.35;118.99
7942;HTU21D;4016;50.758;7.150;2022-12-07T02:29:03;5.52;118.99
7942;HTU21D;4016;50.758;7.150;2022-12-07T02:34:13;5.37;118.99
7942;HTU21D;4016;50.758;7.150;2022-12-07T02:39:21;5.41;118.99
7942;HTU21D;4016;50.758;7.150;2022-12-07T02:44:27;5.38;118.99
7942;HTU21D;4016;50.758;7.150;2022-12-07T02:49:29;5.47;118.99
7942;HTU21D;4016;50.758;7.150;2022-12-07T02:54:30;5.38;118.99
7942;HTU21D;4016;50.758;7.150;2022-12-07T03:04:53;5.37;118.99
7942;HTU21D;4016;50.758;7.150;2022-12-07T03:10:09;5.43;118.99
7942;HTU21D;4016;50.758;7.150;2022-12-07T03:15:15;5.38;118.99
7942;HTU21D;4016;50.758;7.150;2022-12-07T03:20:21;5.32;118.99
7942;HTU21D;4016;50.758;7.150;2022-12-07T03:25:22;5.37;118.99
7942;HTU21D;4016;50.758;7.150;2022-12-07T03:30:28;5.35;118.99
7942;HTU21D;4016;50.758;7.150;2022-12-07T03:35:36;5.35;118.99
7942;HTU21D;4016;50.758;7.150;2022-12-07T03:40:43;5.37;118.99
7942;HTU21D;4016;50.758;7.150;2022-12-07T03:51:27;5.31;118.99
7942;HTU21D;4016;50.758;7.150;2022-12-07T03:56:29;5.35;118.99
7942;HTU21D;4016;50.758;7.150;2022-12-07T04:01:31;5.45;118.99
7942;HTU21D;4016;50.758;7.150;2022-12-07T04:06:31;5.53;118.99
7942;HTU21D;4016;50.758;7.150;2022-12-07T04:11:32;5.41;118.99
7942;HTU21D;4016;50.758;7.150;2022-12-07T04:16:32;5.38;118.99
7942;HTU21D;4016;50.758;7.150;2022-12-07T04:21:32;5.43;118.99
7942;HTU21D;4016;50.758;7.150;2022-12-07T04:26:33;5.43;118.99
7942;HTU21D;4016;50.758;7.150;2022-12-07T04:31:33;5.34;118.99
7942;HTU21D;4016;50.758;7.150;2022-12-07T04:36:34;5.32;118.99
7942;HTU21D;4016;50.758;7.150;2022-12-07T04:41:35;5.38;118.99
7942;HTU21D;4016;50.758;7.150;2022-12-07T04:46:35;5.42;118.99
7942;HTU21D;4016;50.758;7.150;2022-12-07T04:51:36;5.49;118.99
7942;HTU21D;4016;50.758;7.150;2022-12-07T04:56:37;5.40;118.99
7942;HTU21D;4016;50.758;7.150;2022-12-07T05:01:38;5.53;118.99
7942;HTU21D;4016;50.758;7.150;2022-12-07T05:06:38;5.42;118.99
7942;HTU21D;4016;50.758;7.150;2022-12-07T05:11:38;5.67;118.99
7942;HTU21D;4016;50.758;7.150;2022-12-07T05:16:40;5.45;118.99
7942;HTU21D;4016;50.758;7.150;2022-12-07T05:21:41;5.26;118.99
7942;HTU21D;4016;50.758;7.150;2022-12-07T05:26:41;5.38;118.99
7942;HTU21D;4016;50.758;7.150;2022-12-07T05:31:42;5.27;118.99
7942;HTU21D;4016;50.758;7.150;2022-12-07T05:36:42;5.40;118.99
7942;HTU21D;4016;50.758;7.150;2022-12-07T05:41:43;5.30;118.99
7942;HTU21D;4016;50.758;7.150;2022-12-07T05:47:02;5.40;118.99
7942;HTU21D;4016;50.758;7.150;2022-12-07T05:52:02;5.22;118.99
7942;HTU21D;4016;50.758;7.150;2022-12-07T05:57:02;5.17;118.99
7942;HTU21D;4016;50.758;7.150;2022-12-07T06:02:06;5.16;118.99
7942;HTU21D;4016;50.758;7.150;2022-12-07T06:07:07;5.35;118.99
7942;HTU21D;4016;50.758;7.150;2022-12-07T06:12:11;5.51;118.99
7942;HTU21D;4016;50.758;7.150;2022-12-07T06:17:30;5.25;118.99
7942;HTU21D;4016;50.758;7.150;2022-12-07T06:22:31;5.23;118.99
7942;HTU21D;4016;50.758;7.150;2022-12-07T06:27:31;5.27;118.99
7942;HTU21D;4016;50.758;7.150;2022-12-07T06:32:33;5.26;118.99
7942;HTU21D;4016;50.758;7.150;2022-12-07T06:37:33;5.12;118.99
7942;HTU21D;4016;50.758;7.150;2022-12-07T06:42:34;5.06;118.99
7942;HTU21D;4016;50.758;7.150;2022-12-07T06:47:34;5.11;118.99
7942;HTU21D;4016;50.758;7.150;2022-12-07T06:52:34;5.07;118.99
7942;HTU21D;4016;50.758;7.150;2022-12-07T06:57:35;128.86;118.99
7942;HTU21D;4016;50.758;7.150;2022-12-07T07:02:35;4.79;118.99
7942;HTU21D;4016;50.758;7.150;2022-12-07T07:07:36;4.74;118.99
7942;HTU21D;4016;50.758;7.150;2022-12-07T07:12:36;4.63;118.99
7942;HTU21D;4016;50.758;7.150;2022-12-07T07:17:36;4.58;118.99
7942;HTU21D;4016;50.758;7.150;2022-12-07T07:22:37;4.65;118.99
7942;HTU21D;4016;50.758;7.150;2022-12-07T07:27:37;4.54;118.99
7942;HTU21D;4016;50.758;7.150;2022-12-07T07:32:38;4.50;118.99
7942;HTU21D;4016;50.758;7.150;2022-12-07T07:37:38;4.53;118.99
7942;HTU21D;4016;50.758;7.150;2022-12-07T07:42:38;4.52;118.99
7942;HTU21D;4016;50.758;7.150;2022-12-07T07:47:39;4.60;118.99
7942;HTU21D;4016;50.758;7.150;2022-12-07T07:52:39;4.64;118.99
7942;HTU21D;4016;50.758;7.150;2022-12-07T07:57:41;4.68;118.99
7942;HTU21D;4016;50.758;7.150;2022-12-07T08:02:42;4.72;118.99
7942;HTU21D;4016;50.758;7.150;2022-12-07T08:07:43;4.84;118.99
7942;HTU21D;4016;50.758;7.150;2022-12-07T08:12:43;4.91;118.99
7942;HTU21D;4016;50.758;7.150;2022-12-07T08:18:03;4.88;118.99
7942;HTU21D;4016;50.758;7.150;2022-12-07T08:23:04;4.91;118.99
7942;HTU21D;4016;50.758;7.150;2022-12-07T08:28:05;4.87;118.99
7942;HTU21D;4016;50.758;7.150;2022-12-07T08:33:06;4.92;118.99
7942;HTU21D;4016;50.758;7.150;2022-12-07T08:38:06;5.17;118.99
7942;HTU21D;4016;50.758;7.150;2022-12-07T08:43:07;5.17;118.99
7942;HTU21D;4016;50.758;7.150;2022-12-07T08:48:09;5.34;118.99
7942;HTU21D;4016;50.758;7.150;2022-12-07T08:53:12;5.34;118.99
7942;HTU21D;4016;50.758;7.150;2022-12-07T08:58:12;5.42;118.99
7942;HTU21D;4016;50.758;7.150;2022-12-07T09:03:12;5.60;118.99
7942;HTU21D;4016;50.758;7.150;2022-12-07T09:08:13;5.46;118.99
7942;HTU21D;4016;50.758;7.150;2022-12-07T09:13:13;5.66;118.99
7942;HTU21D;4016;50.758;7.150;2022-12-07T09:18:14;5.67;118.99
7942;HTU21D;4016;50.758;7.150;2022-12-07T09:23:14;5.91;118.99
7942;HTU21D;4016;50.758;7.150;2022-12-07T09:28:15;5.84;118.99
7942;HTU21D;4016;50.758;7.150;2022-12-07T09:33:15;5.94;118.99
7942;HTU21D;4016;50.758;7.150;2022-12-07T09:38:16;5.97;118.99
7942;HTU21D;4016;50.758;7.150;2022-12-07T09:43:20;5.95;118.99
7942;HTU21D;4016;50.758;7.150;2022-12-07T09:48:31;6.01;118.99
7942;HTU21D;4016;50.758;7.150;2022-12-07T09:53:37;6.07;118.99
7942;HTU21D;4016;50.758;7.150;2022-12-07T09:58:38;6.13;118.99
7942;HTU21D;4016;50.758;7.150;2022-12-07T10:03:40;6.24;118.99
7942;HTU21D;4016;50.758;7.150;2022-12-07T10:08:42;6.30;118.99
7942;HTU21D;4016;50.758;7.150;2022-12-07T10:13:49;6.27;118.99
7942;HTU21D;4016;50.758;7.150;2022-12-07T10:18:53;6.24;118.99
7942;HTU21D;4016;50.758;7.150;2022-12-07T10:29:14;6.46;118.99
7942;HTU21D;4016;50.758;7.150;2022-12-07T10:34:27;6.58;118.99
7942;HTU21D;4016;50.758;7.150;2022-12-07T10:39:49;6.53;118.99
7942;HTU21D;4016;50.758;7.150;2022-12-07T10:45:16;6.67;118.99
7942;HTU21D;4016;50.758;7.150;2022-12-07T11:00:56;6.90;118.99
7942;HTU21D;4016;50.758;7.150;2022-12-07T11:06:09;6.84;118.99
7942;HTU21D;4016;50.758;7.150;2022-12-07T11:11:33;6.80;118.99
7942;HTU21D;4016;50.758;7.150;2022-12-07T11:16:41;6.72;118.99
7942;HTU21D;4016;50.758;7.150;2022-12-07T11:21:56;6.80;118.99
7942;HTU21D;4016;50.758;7.150;2022-12-07T11:37:34;7.30;118.99
7942;HTU21D;4016;50.758;7.150;2022-12-07T11:42:41;7.46;118.99
7942;HTU21D;4016;50.758;7.150;2022-12-07T11:48:18;7.57;118.99
7942;HTU21D;4016;50.758;7.150;2022-12-07T11:53:25;7.48;118.99
7942;HTU21D;4016;50.758;7.150;2022-12-07T12:03:35;7.28;118.99
7942;HTU21D;4016;50.758;7.150;2022-12-07T12:08:56;7.26;118.99
7942;HTU21D;4016;50.758;7.150;2022-12-07T12:24:50;7.42;118.99
7942;HTU21D;4016;50.758;7.150;2022-12-07T12:29:54;7.70;117.31
7942;HTU21D;4016;50.758;7.150;2022-12-07T12:45:32;7.78;113.71
7942;HTU21D;4016;50.758;7.150;2022-12-07T12:50:35;7.78;114.22
7942;HTU21D;4016;50.758;7.150;2022-12-07T13:00:43;10.93;115.66
7942;HTU21D;4016;50.758;7.150;2022-12-07T13:05:44;7.41;115.15
7942;HTU21D;4016;50.758;7.150;2022-12-07T13:10:47;15.15;117.06
7942;HTU21D;4016;50.758;7.150;2022-12-07T13:16:35;7.45;117.18
7942;HTU21D;4016;50.758;7.150;2022-12-07T13:31:34;7.41;116.72
7942;HTU21D;4016;50.758;7.150;2022-12-07T13:36:38;7.30;117.32
7942;HTU21D;4016;50.758;7.150;2022-12-07T13:41:42;7.25;115.37
7942;HTU21D;4016;50.758;7.150;2022-12-07T13:46:49;7.22;113.83
7942;HTU21D;4016;50.758;7.150;2022-12-07T13:51:51;7.10;113.95
7942;HTU21D;4016;50.758;7.150;2022-12-07T13:56:52;7.09;116.28
7942;HTU21D;4016;50.758;7.150;2022-12-07T14:01:53;6.93;117.76
7942;HTU21D;4016;50.758;7.150;2022-12-07T14:06:54;6.93;118.99
7942;HTU21D;4016;50.758;7.150;2022-12-07T14:11:56;7.04;118.99
7942;HTU21D;4016;50.758;7.150;2022-12-07T14:17:16;6.97;118.99
7942;HTU21D;4016;50.758;7.150;2022-12-07T14:27:33;6.93;117.63
7942;HTU21D;4016;50.758;7.150;2022-12-07T14:32:37;6.87;117.12
7942;HTU21D;4016;50.758;7.150;2022-12-07T14:37:39;6.73;118.21
7942;HTU21D;4016;50.758;7.150;2022-12-07T14:42:39;6.79;114.71
7942;HTU21D;4016;50.758;7.150;2022-12-07T14:47:40;6.44;116.38
7942;HTU21D;4016;50.758;7.150;2022-12-07T14:52:42;6.44;115.28
7942;HTU21D;4016;50.758;7.150;2022-12-07T14:57:43;6.36;116.58
7942;HTU21D;4016;50.758;7.150;2022-12-07T15:02:45;6.24;118.53
7942;HTU21D;4016;50.758;7.150;2022-12-07T15:07:46;6.26;118.90
7942;HTU21D;4016;50.758;7.150;2022-12-07T15:12:47;6.23;118.99
7942;HTU21D;4016;50.758;7.150;2022-12-07T15:17:47;6.10;118.99
7942;HTU21D;4016;50.758;7.150;2022-12-07T15:22:48;6.12;118.99
7942;HTU21D;4016;50.758;7.150;2022-12-07T15:27:48;6.09;118.99
7942;HTU21D;4016;50.758;7.150;2022-12-07T15:32:49;6.09;118.99
7942;HTU21D;4016;50.758;7.150;2022-12-07T15:37:50;6.10;118.99
7942;HTU21D;4016;50.758;7.150;2022-12-07T15:42:50;6.23;118.99
7942;HTU21D;4016;50.758;7.150;2022-12-07T15:47:50;5.97;118.99
7942;HTU21D;4016;50.758;7.150;2022-12-07T15:52:51;6.04;118.99
7942;HTU21D;4016;50.758;7.150;2022-12-07T15:57:51;6.10;118.99
7942;HTU21D;4016;50.758;7.150;2022-12-07T16:02:51;6.01;118.99
7942;HTU21D;4016;50.758;7.150;2022-12-07T16:07:52;6.20;118.99
7942;HTU21D;4016;50.758;7.150;2022-12-07T16:12:52;6.11;118.99
7942;HTU21D;4016;50.758;7.150;2022-12-07T16:17:52;6.02;118.99
7942;HTU21D;4016;50.758;7.150;2022-12-07T16:22:53;6.29;118.99
7942;HTU21D;4016;50.758;7.150;2022-12-07T16:27:54;6.01;118.99
7942;HTU21D;4016;50.758;7.150;2022-12-07T16:32:55;6.11;118.99
7942;HTU21D;4016;50.758;7.150;2022-12-07T16:37:55;6.23;118.99
7942;HTU21D;4016;50.758;7.150;2022-12-07T16:42:55;5.97;118.99
7942;HTU21D;4016;50.758;7.150;2022-12-07T16:47:56;5.89;118.99
7942;HTU21D;4016;50.758;7.150;2022-12-07T16:52:56;5.86;118.99
7942;HTU21D;4016;50.758;7.150;2022-12-07T16:57:56;5.95;118.99
7942;HTU21D;4016;50.758;7.150;2022-12-07T17:02:57;5.95;118.99
7942;HTU21D;4016;50.758;7.150;2022-12-07T17:07:57;5.66;118.99
7942;HTU21D;4016;50.758;7.150;2022-12-07T17:12:58;5.60;118.99
7942;HTU21D;4016;50.758;7.150;2022-12-07T17:17:58;5.63;118.99
7942;HTU21D;4016;50.758;7.150;2022-12-07T17:22:59;5.49;118.99
7942;HTU21D;4016;50.758;7.150;2022-12-07T17:27:59;5.42;118.99
7942;HTU21D;4016;50.758;7.150;2022-12-07T17:32:59;5.39;118.99
7942;HTU21D;4016;50.758;7.150;2022-12-07T17:38:00;5.34;118.99
7942;HTU21D;4016;50.758;7.150;2022-12-07T17:43:00;5.32;118.99
7942;HTU21D;4016;50.758;7.150;2022-12-07T17:48:00;5.30;118.99
7942;HTU21D;4016;50.758;7.150;2022-12-07T17:53:01;5.42;118.99
7942;HTU21D;4016;50.758;7.150;2022-12-07T17:58:10;5.52;118.99
7942;HTU21D;4016;50.758;7.150;2022-12-07T18:03:10;5.34;118.99
7942;HTU21D;4016;50.758;7.150;2022-12-07T18:08:11;5.37;118.99
7942;HTU21D;4016;50.758;7.150;2022-12-07T18:13:11;5.42;118.99
7942;HTU21D;4016;50.758;7.150;2022-12-07T18:18:30;5.39;118.99
7942;HTU21D;4016;50.758;7.150;2022-12-07T18:23:31;5.30;118.99
7942;HTU21D;4016;50.758;7.150;2022-12-07T18:28:32;5.22;118.99
7942;HTU21D;4016;50.758;7.150;2022-12-07T18:33:33;5.25;118.99
7942;HTU21D;4016;50.758;7.150;2022-12-07T18:38:34;5.33;118.99
7942;HTU21D;4016;50.758;7.150;2022-12-07T18:43:35;5.26;118.99
7942;HTU21D;4016;50.758;7.150;2022-12-07T18:48:36;5.37;118.99
7942;HTU21D;4016;50.758;7.150;2022-12-07T18:53:36;5.28;118.99
7942;HTU21D;4016;50.758;7.150;2022-12-07T18:58:37;5.30;118.99
7942;HTU21D;4016;50.758;7.150;2022-12-07T19:03:37;5.37;118.99
7942;HTU21D;4016;50.758;7.150;2022-12-07T19:08:37;5.23;118.99
7942;HTU21D;4016;50.758;7.150;2022-12-07T19:13:38;5.24;118.99
7942;HTU21D;4016;50.758;7.150;2022-12-07T19:18:38;5.36;118.99
7942;HTU21D;4016;50.758;7.150;2022-12-07T19:23:38;5.33;118.99
7942;HTU21D;4016;50.758;7.150;2022-12-07T19:28:39;5.32;118.99
7942;HTU21D;4016;50.758;7.150;2022-12-07T19:33:39;5.34;118.99
7942;HTU21D;4016;50.758;7.150;2022-12-07T19:38:40;5.25;118.99
7942;HTU21D;4016;50.758;7.150;2022-12-07T19:43:40;5.12;118.99
7942;HTU21D;4016;50.758;7.150;2022-12-07T19:48:41;5.21;118.99
7942;HTU21D;4016;50.758;7.150;2022-12-07T19:53:41;5.24;118.99
7942;HTU21D;4016;50.758;7.150;2022-12-07T19:58:41;5.18;118.99
7942;HTU21D;4016;50.758;7.150;2022-12-07T20:03:42;5.12;118.99
7942;HTU21D;4016;50.758;7.150;2022-12-07T20:08:44;5.25;118.99
7942;HTU21D;4016;50.758;7.150;2022-12-07T20:13:44;5.04;118.99
7942;HTU21D;4016;50.758;7.150;2022-12-07T20:18:45;8.22;118.99
7942;HTU21D;4016;50.758;7.150;2022-12-07T20:23:45;4.88;118.99
7942;HTU21D;4016;50.758;7.150;2022-12-07T20:28:46;4.95;118.99
7942;HTU21D;4016;50.758;7.150;2022-12-07T20:33:47;5.02;118.99
7942;HTU21D;4016;50.758;7.150;2022-12-07T20:38:47;4.87;118.99
7942;HTU21D;4016;50.758;7.150;2022-12-07T20:43:48;4.91;118.99
7942;HTU21D;4016;50.758;7.150;2022-12-07T20:48:48;4.92;118.99
7942;HTU21D;4016;50.758;7.150;2022-12-07T20:53:49;5.01;118.99
7942;HTU21D;4016;50.758;7.150;2022-12-07T20:58:49;4.95;118.99
7942;HTU21D;4016;50.758;7.150;2022-12-07T21:03:53;4.93;118.99
7942;HTU21D;4016;50.758;7.150;2022-12-07T21:08:56;4.90;118.99
7942;HTU21D;4016;50.758;7.150;2022-12-07T21:13:57;5.05;118.99
7942;HTU21D;4016;50.758;7.150;2022-12-07T21:18:59;5.09;118.99
7942;HTU21D;4016;50.758;7.150;2022-12-07T21:24:03;9.17;118.99
7942;HTU21D;4016;50.758;7.150;2022-12-07T21:29:05;4.95;118.99
7942;HTU21D;4016;50.758;7.150;2022-12-07T21:34:06;4.87;118.99
7942;HTU21D;4016;50.758;7.150;2022-12-07T21:39:06;4.83;118.99
7942;HTU21D;4016;50.758;7.150;2022-12-07T21:44:07;5.01;118.99
7942;HTU21D;4016;50.758;7.150;2022-12-07T21:49:11;4.91;118.99
7942;HTU21D;4016;50.758;7.150;2022-12-07T21:54:12;4.98;118.99
7942;HTU21D;4016;50.758;7.150;2022-12-07T21:59:15;4.65;118.99
7942;HTU21D;4016;50.758;7.150;2022-12-07T22:04:24;4.56;118.99
7942;HTU21D;4016;50.758;7.150;2022-12-07T22:09:25;4.58;118.99
7942;HTU21D;4016;50.758;7.150;2022-12-07T22:14:27;4.51;118.99
7942;HTU21D;4016;50.758;7.150;2022-12-07T22:19:46;4.51;118.99
7942;HTU21D;4016;50.758;7.150;2022-12-07T22:24:47;4.47;118.99
7942;HTU21D;4016;50.758;7.150;2022-12-07T22:29:47;4.45;118.99
7942;HTU21D;4016;50.758;7.150;2022-12-07T22:34:48;4.42;118.99
7942;HTU21D;4016;50.758;7.150;2022-12-07T22:39:48;4.37;118.99
7942;HTU21D;4016;50.758;7.150;2022-12-07T22:44:48;4.39;118.99
7942;HTU21D;4016;50.758;7.150;2022-12-07T22:49:48;4.34;118.99
7942;HTU21D;4016;50.758;7.150;2022-12-07T22:54:50;4.34;118.99
7942;HTU21D;4016;50.758;7.150;2022-12-07T22:59:50;4.27;118.99
7942;HTU21D;4016;50.758;7.150;2022-12-07T23:04:51;4.24;118.99
7942;HTU21D;4016;50.758;7.150;2022-12-07T23:09:51;4.30;118.99
7942;HTU21D;4016;50.758;7.150;2022-12-07T23:14:51;4.39;118.99
7942;HTU21D;4016;50.758;7.150;2022-12-07T23:19:53;4.28;118.99
7942;HTU21D;4016;50.758;7.150;2022-12-07T23:24:54;4.22;118.99
7942;HTU21D;4016;50.758;7.150;2022-12-07T23:29:54;4.22;118.99
7942;HTU21D;4016;50.758;7.150;2022-12-07T23:34:54;4.20;118.99
7942;HTU21D;4016;50.758;7.150;2022-12-07T23:39:55;4.19;118.99
7942;HTU21D;4016;50.758;7.150;2022-12-07T23:44:55;4.18;118.99
7942;HTU21D;4016;50.758;7.150;2022-12-07T23:49:55;4.12;118.99
7942;HTU21D;4016;50.758;7.150;2022-12-07T23:54:56;4.09;118.99
7942;HTU21D;4016;50.758;7.150;2022-12-07T23:59:56;4.08;118.99
